Stockton, Illinois
Current Conditions -  °F | °C
As of 6:55 AM on Saturday 20 Dec 2014 (Local Time) from KSFY Reporting Station
Overcast Overcast  
Wind Chill: 29°   Ceiling: 6000
Heat Index: 29°   Visibility: 7mi
Dew Point: 26°   Wind: 3mph
Humidity: 87%   Direction: 100°E
Pressure: 30.26"   Gusts: NA
Location:  42.35°N, 90.01°W
Report Text: KSFY 201255Z AUTO 10003KT 7SM SCT032 SCT047 OVC060 M02/M03 A3026 RMK AO2 T10161035
Loading
Personal Weather Stations






























Interactive Weather Map New forecast layout! Learn more

10-Day Weather Forecast

Advertisements
Track Severe Weather on mobile